Time;durP1;ratioP1;P1;durP2;ratioP2;P2;SDS_P1;SDS_P2;PMS_P1;PMS_P2;Temp;Humidity;BMP_temperature;BMP_pressure;BME280_temperature;BME280_humidity;BME280_pressure;Samples;Min_cycle;Max_cycle;Signal;HPM_P1;HPM_P2
2021/03/30 00:01:27;;;;;;;43.02;28.87;;;;;;;6.69;64.72;101126.90;1773263;79;21126;-67
2021/03/30 00:03:55;;;;;;;48.10;28.40;;;;;;;6.66;64.78;101126.45;1735253;80;21616;-66
2021/03/30 00:06:23;;;;;;;48.80;28.83;;;;;;;6.68;64.81;101121.22;1769682;80;21906;-67
2021/03/30 00:08:51;;;;;;;47.95;29.32;;;;;;;6.69;64.74;101122.98;1791153;78;21576;-67
2021/03/30 00:11:19;;;;;;;45.40;29.00;;;;;;;6.69;64.68;101120.36;1803616;78;21627;-67
2021/03/30 00:13:46;;;;;;;;;;;;;;;6.69;64.70;101124.28;1768490;80;21631;-67
2021/03/30 00:16:14;;;;;;;51.58;31.45;;;;;;;6.67;64.79;101119.05;1792724;78;20489;-67
2021/03/30 00:18:41;;;;;;;48.05;30.08;;;;;;;6.62;64.91;101121.66;1766262;80;22035;-67
2021/03/30 00:21:09;;;;;;;48.55;30.12;;;;;;;6.60;64.92;101115.58;1799230;78;21206;-67
2021/03/30 00:23:37;;;;;;;47.05;28.55;;;;;;;6.59;64.93;101121.70;1764609;80;21135;-70
2021/03/30 00:26:05;;;;;;;50.40;29.98;;;;;;;6.57;64.94;101119.53;1800274;78;21158;-67
2021/03/30 00:28:33;;;;;;;49.53;29.15;;;;;;;6.58;64.95;101119.94;1758802;80;21608;-68
2021/03/30 00:31:01;;;;;;;47.50;28.98;;;;;;;6.58;64.93;101116.47;1755736;78;22056;-67
2021/03/30 00:33:29;;;;;;;53.05;32.20;;;;;;;6.59;64.86;101123.00;1773731;79;21662;-67
2021/03/30 00:35:57;;;;;;;57.83;34.45;;;;;;;6.59;64.91;101119.50;1766006;80;26183;-67
2021/03/30 00:38:25;;;;;;;56.88;33.83;;;;;;;6.59;65.02;101115.16;1760485;80;21566;-66
2021/03/30 00:40:53;;;;;;;;;;;;;;;6.66;65.55;101117.75;1765894;80;21585;-67
2021/03/30 00:43:20;;;;;;;52.65;30.82;;;;;;;6.76;65.37;101118.13;1761339;80;21892;-67
2021/03/30 00:45:51;;;;;;;;;;;;;;;6.72;65.29;101121.64;1762232;80;21591;-70
2021/03/30 00:48:24;;;;;;;51.30;31.65;;;;;;;6.69;65.20;101119.05;1756986;80;20480;-66
2021/03/30 00:50:53;;;;;;;54.05;32.63;;;;;;;6.67;65.15;101118.16;1752627;80;21257;-68
2021/03/30 00:53:40;;;;;;;56.63;34.07;;;;;;;6.67;65.10;101123.39;1764714;80;21155;-67
2021/03/30 00:56:26;;;;;;;52.20;33.28;;;;;;;6.69;64.99;101122.53;1845880;76;23275;-65
2021/03/30 00:58:55;;;;;;;53.48;33.30;;;;;;;6.62;65.03;101120.36;1826073;76;21616;-65
2021/03/30 01:01:23;;;;;;;51.33;32.65;;;;;;;6.59;65.14;101119.08;1833628;75;21984;-66
2021/03/30 01:03:51;;;;;;;58.35;35.15;;;;;;;6.57;65.22;101119.94;1825335;77;28948;-67
2021/03/30 01:06:20;;;;;;;55.90;37.33;;;;;;;6.54;65.35;101119.52;1822829;76;21567;-66
2021/03/30 01:09:19;;;;;;;60.58;37.98;;;;;;;6.52;65.35;101124.33;1830416;76;21631;-67
2021/03/30 01:12:18;;;;;;;57.27;37.65;;;;;;;6.48;65.51;101123.88;1838586;76;21192;-68
2021/03/30 01:15:03;;;;;;;65.80;38.30;;;;;;;6.42;65.55;101124.35;1794706;77;21634;-68
2021/03/30 01:17:48;;;;;;;58.73;38.08;;;;;;;6.39;65.56;101121.73;1822214;76;21662;-67
2021/03/30 01:20:50;;;;;;;56.80;36.20;;;;;;;6.37;65.62;101123.48;1824267;77;21638;-67
2021/03/30 01:23:42;;;;;;;52.25;31.90;;;;;;;6.36;65.67;101122.17;1822805;77;21512;-68
2021/03/30 01:26:51;;;;;;;47.83;30.45;;;;;;;6.34;65.66;101116.08;1824923;77;21578;-65
2021/03/30 01:29:43;;;;;;;47.35;28.77;;;;;;;6.31;65.67;101117.38;1832610;77;21875;-67
2021/03/30 01:32:39;;;;;;;42.95;27.05;;;;;;;6.40;66.23;101120.88;1828544;77;21503;-68
2021/03/30 01:35:13;;;;;;;44.60;26.07;;;;;;;6.50;66.09;101119.11;1828344;77;21631;-67
2021/03/30 01:37:44;;;;;;;40.05;25.65;;;;;;;6.47;65.87;101118.23;1839812;77;21488;-66
2021/03/30 01:40:17;;;;;;;39.08;24.50;;;;;;;6.47;65.74;101131.30;1822506;77;21671;-66
2021/03/30 01:42:46;;;;;;;34.60;22.58;;;;;;;6.46;65.52;101123.91;1835632;76;22035;-67
2021/03/30 01:45:16;;;;;;;35.25;23.12;;;;;;;6.44;65.34;101128.23;1819521;77;21669;-67
2021/03/30 01:47:43;;;;;;;36.40;23.55;;;;;;;6.42;65.27;101124.77;1830664;76;21607;-67
2021/03/30 01:50:12;;;;;;;36.68;24.10;;;;;;;6.42;65.10;101128.68;1802420;77;27158;-68
2021/03/30 01:52:40;;;;;;;39.25;23.77;;;;;;;6.40;65.06;101126.52;1827328;77;21571;-67
2021/03/30 01:55:11;;;;;;;;;;;;;;;6.39;65.05;101124.79;1825129;77;22121;-67
2021/03/30 01:57:39;;;;;;;32.17;21.50;;;;;;;6.36;64.91;101127.39;1822526;77;20647;-66
2021/03/30 02:00:08;;;;;;;39.38;23.85;;;;;;;6.30;64.96;101123.05;1776173;76;28579;-66
2021/03/30 02:02:43;;;;;;;35.17;22.65;;;;;;;6.30;65.00;101128.72;1771996;80;21117;-68
2021/03/30 02:05:12;;;;;;;36.28;24.10;;;;;;;6.28;64.96;101126.55;1796276;78;21528;-68
2021/03/30 02:07:41;;;;;;;45.08;23.73;;;;;;;6.23;64.95;101132.66;1776543;78;22063;-66
2021/03/30 02:10:35;;;;;;;35.70;24.67;;;;;;;6.22;64.99;101137.44;1780314;78;21622;-67
2021/03/30 02:13:02;;;;;;;42.05;24.75;;;;;;;6.17;64.94;101140.47;1620872;87;21630;-66
2021/03/30 02:15:31;;;;;;;35.45;24.77;;;;;;;6.10;64.89;101141.78;1610041;87;21674;-66
2021/03/30 02:18:06;;;;;;;;;;;;;;;5.98;65.05;101144.84;1640314;85;21897;-66
2021/03/30 02:20:40;;;;;;;36.90;22.67;;;;;;;5.92;65.40;101147.87;1646214;84;22130;-70
2021/03/30 02:23:11;;;;;;;39.35;24.70;;;;;;;5.83;65.44;101149.58;1649125;85;21643;-67
2021/03/30 02:25:40;;;;;;;41.20;24.87;;;;;;;5.77;65.60;101149.58;1634771;85;21663;-66
2021/03/30 02:28:12;;;;;;;38.90;24.87;;;;;;;5.72;65.76;101144.78;1643108;85;21602;-67
2021/03/30 02:30:40;;;;;;;40.48;25.48;;;;;;;5.68;65.86;101145.66;1644156;84;21623;-67
2021/03/30 02:33:11;;;;;;;39.45;24.87;;;;;;;5.64;65.97;101148.69;1651748;84;22338;-65
2021/03/30 02:35:39;;;;;;;39.23;23.87;;;;;;;5.65;66.18;101146.95;1586674;87;21741;-66
2021/03/30 02:38:07;;;;;;;37.95;22.67;;;;;;;5.75;66.56;101138.72;1640420;85;21616;-67
2021/03/30 02:40:35;;;;;;;37.65;22.58;;;;;;;5.91;66.47;101142.20;1645019;85;21665;-67
2021/03/30 02:43:03;;;;;;;35.10;22.02;;;;;;;5.94;66.15;101141.77;1620286;85;21579;-68
2021/03/30 02:45:31;;;;;;;;;;;;;;;5.94;65.99;101143.06;1647047;85;22549;-68
2021/03/30 02:48:02;;;;;;;29.70;20.52;;;;;;;5.97;65.92;101144.83;1648784;85;20611;-68
2021/03/30 02:50:30;;;;;;;31.52;20.45;;;;;;;5.97;65.73;101142.22;1648415;85;21220;-67
2021/03/30 02:52:58;;;;;;;35.08;21.20;;;;;;;5.98;65.58;101137.45;1645245;85;21682;-67
2021/03/30 02:55:26;;;;;;;31.33;21.52;;;;;;;6.01;65.45;101141.38;1611394;85;21686;-67
2021/03/30 02:57:53;;;;;;;34.92;22.98;;;;;;;6.01;65.38;101140.93;1649640;85;22049;-68
2021/03/30 03:00:22;;;;;;;51.53;30.30;;;;;;;6.01;65.29;101140.07;1597784;85;28814;-66
2021/03/30 03:02:50;;;;;;;52.48;33.00;;;;;;;5.95;65.59;101139.64;1644017;85;21654;-65
2021/03/30 03:05:17;;;;;;;;;;;;;;;5.91;65.93;101142.20;1650497;85;21631;-66
2021/03/30 03:07:45;;;;;;;52.83;30.12;;;;;;;5.85;66.87;101142.62;1649536;85;20444;-67
2021/03/30 03:10:14;;;;;;;51.33;30.30;;;;;;;5.80;66.57;101145.69;1614821;85;21970;-66
2021/03/30 03:12:43;;;;;;;42.90;26.45;;;;;;;5.78;66.54;101140.90;1637190;85;22214;-67
2021/03/30 03:15:14;;;;;;;41.73;26.73;;;;;;;5.75;66.58;101138.27;1634046;85;21296;-66
2021/03/30 03:17:42;;;;;;;38.33;26.20;;;;;;;5.76;66.65;101140.44;1637564;85;21726;-66
2021/03/30 03:20:12;;;;;;;35.83;24.27;;;;;;;5.78;66.67;101139.59;1630849;85;21748;-67
2021/03/30 03:22:40;;;;;;;43.40;25.27;;;;;;;5.91;66.92;101145.66;1638641;85;22049;-66
2021/03/30 03:25:15;;;;;;;40.65;26.07;;;;;;;6.05;66.98;101136.58;1638229;86;21682;-66
2021/03/30 03:27:43;;;;;;;43.02;27.58;;;;;;;6.05;66.86;101144.41;1600101;87;21220;-68
2021/03/30 03:30:12;;;;;;;45.52;28.50;;;;;;;5.99;66.86;101141.78;1636712;85;21689;-68
2021/03/30 03:32:41;;;;;;;45.55;27.65;;;;;;;5.99;66.86;101140.48;1639261;85;21636;-68
2021/03/30 03:35:12;;;;;;;39.45;25.65;;;;;;;5.99;66.77;101146.59;1639724;85;21669;-68
2021/03/30 03:37:45;;;;;;;38.58;24.37;;;;;;;5.99;66.55;101147.90;1633989;86;21511;-67
2021/03/30 03:40:14;;;;;;;39.70;22.80;;;;;;;5.97;66.31;101151.36;1635701;85;21634;-67
2021/03/30 03:42:42;;;;;;;37.83;23.32;;;;;;;5.91;66.04;101158.72;1645166;85;21197;-67
2021/03/30 03:45:12;;;;;;;38.63;23.98;;;;;;;5.87;66.19;101160.03;1639071;86;21697;-68
2021/03/30 03:47:40;;;;;;;35.88;23.15;;;;;;;5.87;66.05;101160.03;1631743;85;22030;-69
2021/03/30 03:50:09;;;;;;;34.83;22.73;;;;;;;5.87;66.00;101160.03;1628933;85;21712;-69
2021/03/30 03:52:40;;;;;;;42.70;22.62;;;;;;;5.87;65.92;101162.20;1638828;85;21650;-65
2021/03/30 03:55:10;;;;;;;34.78;22.22;;;;;;;5.89;65.79;101162.21;1637153;86;21700;-69
2021/03/30 03:57:46;;;;;;;33.33;21.82;;;;;;;5.90;65.76;101166.13;1640918;85;21673;-68
2021/03/30 04:00:16;;;;;;;33.13;21.45;;;;;;;5.92;65.71;101164.84;1637354;85;22507;-69
2021/03/30 04:03:07;;;;;;;31.00;20.30;;;;;;;5.94;65.54;101171.79;1637222;85;21673;-68
2021/03/30 04:05:41;;;;;;;34.20;19.87;;;;;;;5.94;65.45;101166.56;1644066;85;21202;-69
2021/03/30 04:08:15;;;;;;;28.40;19.55;;;;;;;5.95;65.40;101168.36;1638522;85;21709;-69
2021/03/30 04:10:47;;;;;;;34.48;21.73;;;;;;;5.96;65.20;101172.69;1634201;85;21658;-70
2021/03/30 04:13:18;;;;;;;28.92;19.57;;;;;;;5.93;65.30;101163.95;1644891;85;21895;-65
2021/03/30 04:15:46;;;;;;;32.60;19.92;;;;;;;5.96;65.31;101170.08;1638365;85;21640;-66
2021/03/30 04:18:14;;;;;;;35.58;20.10;;;;;;;5.98;65.33;101171.39;1640407;85;21147;-70
2021/03/30 04:20:42;;;;;;;32.60;20.75;;;;;;;6.02;65.22;101178.34;1644263;85;21712;-66
2021/03/30 04:23:10;;;;;;;31.57;20.57;;;;;;;6.04;65.27;101180.08;1645629;85;21102;-65
2021/03/30 04:25:38;;;;;;;38.25;21.60;;;;;;;6.06;65.24;101180.09;1630363;85;22116;-65
2021/03/30 04:28:05;;;;;;;32.35;19.17;;;;;;;6.10;65.21;101178.34;1647508;85;27019;-67
2021/03/30 04:30:34;;;;;;;27.70;19.57;;;;;;;6.17;65.49;101178.34;1643597;85;21659;-68
2021/03/30 04:33:03;;;;;;;31.20;19.15;;;;;;;6.32;65.42;101176.61;1649361;85;21659;-67
2021/03/30 04:35:31;;;;;;;28.57;19.15;;;;;;;6.34;65.25;101183.56;1648306;85;21686;-60
2021/03/30 04:37:58;;;;;;;;;;;;;;;6.36;65.09;101187.04;1656115;85;22104;-64
2021/03/30 04:40:26;;;;;;;26.85;18.30;;;;;;;6.38;64.62;101188.35;1645357;85;20584;-72
2021/03/30 04:42:54;;;;;;;28.73;19.52;;;;;;;6.34;64.52;101191.40;1648718;85;21619;-65
2021/03/30 04:45:22;;;;;;;32.30;20.68;;;;;;;6.32;64.51;101194.45;1642449;85;21638;-66
2021/03/30 04:47:50;;;;;;;35.75;20.45;;;;;;;6.31;64.46;101192.73;1648364;85;21253;-61
2021/03/30 04:50:18;;;;;;;37.23;21.25;;;;;;;6.35;64.45;101190.98;1645021;85;21658;-61
2021/03/30 04:52:46;;;;;;;32.40;20.57;;;;;;;6.38;64.37;101193.58;1645987;85;21615;-60
2021/03/30 04:55:15;;;;;;;35.05;23.18;;;;;;;6.43;64.47;101197.06;1639541;85;21608;-63
2021/03/30 04:57:42;;;;;;;31.07;21.52;;;;;;;6.45;64.46;101202.30;1648799;85;21182;-61
2021/03/30 05:00:11;;;;;;;31.97;21.48;;;;;;;6.46;64.35;101204.91;1645371;85;21703;-59
2021/03/30 05:02:39;;;;;;;29.77;19.42;;;;;;;6.48;64.21;101200.55;1644918;85;22086;-60
2021/03/30 05:05:08;;;;;;;34.15;20.82;;;;;;;6.51;64.06;101203.59;1645119;85;25264;-61
2021/03/30 05:07:37;;;;;;;33.00;20.20;;;;;;;6.52;63.81;101203.59;1647870;85;21639;-61
2021/03/30 05:10:07;;;;;;;30.62;20.82;;;;;;;6.54;63.73;101205.77;1646762;85;21634;-67
2021/03/30 05:12:34;;;;;;;37.67;21.35;;;;;;;6.57;63.58;101204.88;1647900;85;21667;-60
2021/03/30 05:15:04;;;;;;;33.38;22.42;;;;;;;6.58;63.55;101206.19;1651255;85;22147;-60
2021/03/30 05:17:34;;;;;;;36.70;24.00;;;;;;;6.60;63.77;101212.72;1648623;85;21742;-61
2021/03/30 05:20:06;;;;;;;33.55;22.77;;;;;;;6.63;63.87;101219.27;1639591;85;22065;-60
2021/03/30 05:22:34;;;;;;;39.95;23.52;;;;;;;6.66;63.85;101214.02;1636966;85;22039;-63
2021/03/30 05:25:02;;;;;;;38.80;24.37;;;;;;;6.69;63.89;101213.16;1645195;85;21610;-62
2021/03/30 05:27:30;;;;;;;42.13;24.70;;;;;;;6.69;63.84;101213.16;1615164;87;22144;-61
2021/03/30 05:29:58;;;;;;;38.10;23.52;;;;;;;6.69;63.81;101211.85;1632939;85;28835;-60
2021/03/30 05:32:26;;;;;;;36.13;23.35;;;;;;;6.71;63.71;101211.41;1641382;85;21214;-59
2021/03/30 05:34:54;;;;;;;35.43;23.12;;;;;;;6.71;63.69;101216.19;1648378;85;21734;-59
2021/03/30 05:37:22;;;;;;;40.10;24.07;;;;;;;6.73;63.64;101209.66;1638616;85;21604;-63
2021/03/30 05:39:51;;;;;;;35.25;22.15;;;;;;;6.74;63.60;101215.30;1643070;85;22135;-62
2021/03/30 05:42:20;;;;;;;;;;;;;;;6.76;63.60;101218.78;1642225;85;21626;-61
2021/03/30 05:44:47;;;;;;;32.38;20.08;;;;;;;6.76;63.53;101222.70;1646994;85;20575;-61
2021/03/30 05:47:17;;;;;;;32.15;21.00;;;;;;;6.74;63.37;101220.12;1608550;87;21618;-63
2021/03/30 05:49:45;;;;;;;29.25;20.45;;;;;;;6.79;63.24;101226.63;1640169;85;21600;-63
2021/03/30 05:52:32;;;;;;;31.70;20.77;;;;;;;6.81;63.11;101221.82;1651747;85;21662;-61
2021/03/30 05:54:58;;;;;;;34.43;21.12;;;;;;;6.84;62.97;101220.96;1638636;85;21261;-56
2021/03/30 05:57:28;;;;;;;30.27;21.80;;;;;;;6.85;62.99;101216.15;1643242;85;21377;-56
2021/03/30 05:59:58;;;;;;;37.67;22.05;;;;;;;6.89;62.93;101217.88;1612250;87;21767;-62
2021/03/30 06:02:43;;;;;;;31.82;21.05;;;;;;;6.92;62.88;101219.19;1607082;87;21726;-64
2021/03/30 06:05:17;;;;;;;33.25;21.37;;;;;;;6.96;62.77;101215.69;1642374;85;22106;-63
2021/03/30 06:07:44;;;;;;;31.77;20.90;;;;;;;7.01;62.67;101217.86;1649441;85;21182;-63
2021/03/30 06:10:17;;;;;;;;;;;;;;;7.07;62.65;101230.05;1650855;85;21646;-62
2021/03/30 06:12:45;;;;;;;28.12;19.48;;;;;;;7.10;62.35;101223.51;1649902;85;20350;-60
2021/03/30 06:15:13;;;;;;;32.42;20.62;;;;;;;7.12;62.42;101223.06;1652032;85;21757;-60
2021/03/30 06:17:50;;;;;;;31.70;21.50;;;;;;;7.16;62.29;101224.78;1643270;85;22089;-61
2021/03/30 06:20:31;;;;;;;32.63;19.80;;;;;;;7.20;62.24;101226.95;1638427;85;21670;-61
2021/03/30 06:23:05;;;;;;;31.95;21.00;;;;;;;7.23;62.21;101223.45;1644551;85;21666;-65
2021/03/30 06:25:50;;;;;;;31.73;20.57;;;;;;;7.28;62.04;101222.55;1647956;85;21615;-59
2021/03/30 06:28:27;;;;;;;29.87;19.55;;;;;;;7.27;61.92;101223.45;1639171;85;21138;-62
2021/03/30 06:31:09;;;;;;;;;;;;;;;7.32;61.97;101229.95;1650890;85;22108;-61
2021/03/30 06:36:32;;;;;;;31.60;24.63;;;;;;;7.52;60.48;101223.34;1849298;74;28482;-59
2021/03/30 06:46:52;;;;;;;23.85;15.75;;;;;;;8.09;58.95;101226.91;1749214;80;21968;-61
2021/03/30 06:49:22;;;;;;;21.65;13.10;;;;;;;8.14;57.35;101225.12;1730182;81;21655;-61
2021/03/30 06:51:49;;;;;;;16.90;11.22;;;;;;;8.24;57.08;101228.09;1782075;79;21193;-61
2021/03/30 06:54:17;;;;;;;21.10;11.43;;;;;;;8.35;55.50;101230.19;1782049;78;21631;-62
2021/03/30 06:56:54;;;;;;;;;;;;;;;8.45;54.47;101233.63;1740831;80;21567;-61
2021/03/30 06:59:22;;;;;;;17.25;9.70;;;;;;;8.49;50.97;101233.16;1742499;79;21715;-62
2021/03/30 07:01:55;;;;;;;17.57;10.20;;;;;;;8.55;53.34;101235.72;1772836;79;21564;-63
2021/03/30 07:04:22;;;;;;;16.95;10.25;;;;;;;8.63;52.44;101238.30;1774678;79;21603;-65
2021/03/30 07:06:53;;;;;;;;;;;;;;;8.70;52.23;101244.78;1788007;79;21574;-61
2021/03/30 07:09:23;;;;;;;18.17;8.88;;;;;;;8.76;48.31;101242.55;1783132;79;20254;-61
2021/03/30 07:11:51;;;;;;;12.75;8.75;;;;;;;8.77;49.77;101244.26;1774943;79;22050;-64
2021/03/30 16:28:56;;;;;;;23.07;14.60;;;;;;;10.70;38.12;100957.11;1853647;74;22544;-60
2021/03/30 16:31:24;;;;;;;20.12;14.63;;;;;;;10.63;38.98;100962.09;1820140;76;21590;-62
2021/03/30 16:33:52;;;;;;;25.15;15.63;;;;;;;10.59;39.47;100956.48;1828100;76;25745;-61
2021/03/30 16:36:20;;;;;;;23.70;15.55;;;;;;;10.53;40.20;100956.17;1813451;75;21620;-60
2021/03/30 16:38:48;;;;;;;;;;;;;;;10.49;40.58;100965.00;1828876;76;21638;-62
2021/03/30 16:41:17;;;;;;;65.15;31.30;;;;;;;10.47;40.88;100959.80;1809136;76;20466;-65
2021/03/30 16:43:46;;;;;;;62.45;31.80;;;;;;;10.46;40.57;100961.14;1825875;75;21665;-64
2021/03/30 16:46:15;;;;;;;66.37;34.70;;;;;;;10.42;40.85;100961.65;1770347;79;21900;-64
2021/03/30 16:48:42;;;;;;;67.25;36.10;;;;;;;10.39;40.95;100961.70;1735695;79;21567;-63
2021/03/30 16:51:31;;;;;;;71.57;38.13;;;;;;;10.39;40.95;100967.42;1762579;79;21580;-63
2021/03/30 16:53:57;;;;;;;;;;;;;;;10.36;41.02;100963.53;1813488;76;21650;-63
2021/03/30 16:56:25;;;;;;;78.12;40.25;;;;;;;10.29;41.28;100960.14;1815377;76;20623;-64
2021/03/30 16:58:52;;;;;;;80.80;41.50;;;;;;;10.24;41.44;100956.73;1819333;76;21919;-63
2021/03/30 17:01:21;;;;;;;75.15;38.85;;;;;;;10.21;41.51;100956.79;1825148;76;21752;-63
2021/03/30 17:03:48;;;;;;;77.45;41.28;;;;;;;10.17;41.52;100953.81;1826419;76;21621;-62
2021/03/30 17:06:16;;;;;;;72.35;39.70;;;;;;;10.11;41.69;100955.69;1813343;75;21673;-63
2021/03/30 17:08:45;;;;;;;65.45;35.55;;;;;;;10.08;41.74;100956.20;1810438;76;21653;-63
2021/03/30 17:11:13;;;;;;;67.37;35.85;;;;;;;10.06;41.87;100961.94;1808719;76;22055;-64
2021/03/30 17:13:41;;;;;;;58.33;33.10;;;;;;;10.01;42.17;100956.75;1807359;77;21669;-63
2021/03/30 17:16:11;;;;;;;62.65;28.87;;;;;;;9.97;42.89;100958.17;1812343;76;21710;-63
2021/03/30 17:18:39;;;;;;;55.10;27.30;;;;;;;9.91;42.61;100958.70;1809812;76;21666;-63
2021/03/30 17:21:10;;;;;;;53.17;27.32;;;;;;;9.90;42.31;100956.95;1808362;76;21475;-62
2021/03/30 17:23:37;;;;;;;59.48;27.95;;;;;;;9.91;42.33;100962.63;1820275;75;22616;-63
2021/03/30 17:26:05;;;;;;;56.98;28.77;;;;;;;9.85;42.60;100957.93;1797770;77;27873;-63
2021/03/30 17:28:33;;;;;;;;;;;;;;;9.80;42.79;100966.37;1810613;76;21856;-63
2021/03/30 17:31:00;;;;;;;40.98;21.00;;;;;;;9.74;43.14;100963.41;1811193;75;20600;-63
2021/03/30 17:33:28;;;;;;;48.00;23.05;;;;;;;9.66;42.77;100959.61;1803318;76;21474;-62
2021/03/30 17:35:57;;;;;;;44.25;22.93;;;;;;;9.66;42.64;100963.97;1801361;77;21998;-62
2021/03/30 17:38:24;;;;;;;54.50;22.60;;;;;;;9.66;42.64;100967.91;1823801;76;21677;-66
2021/03/30 17:40:53;;;;;;;42.65;21.50;;;;;;;9.66;42.56;100971.84;1818423;75;21173;-64
2021/03/30 17:43:22;;;;;;;44.85;22.75;;;;;;;9.64;42.88;100961.82;1804633;76;21665;-65
2021/03/30 17:45:50;;;;;;;43.23;23.07;;;;;;;9.61;43.04;100965.38;1806138;77;21600;-65
2021/03/30 17:48:18;;;;;;;46.02;21.40;;;;;;;9.57;43.04;100965.45;1804489;76;22671;-65
2021/03/30 17:50:46;;;;;;;38.50;21.05;;;;;;;9.49;43.17;100966.47;1808240;76;21669;-65
2021/03/30 17:53:13;;;;;;;;;;;;;;;9.46;43.11;100965.66;1819745;76;21607;-64
2021/03/30 17:55:42;;;;;;;35.43;21.62;;;;;;;9.45;43.00;100970.02;1801741;77;20235;-64
2021/03/30 17:58:10;;;;;;;55.98;33.48;;;;;;;9.43;43.12;100969.63;1811926;77;21631;-64
2021/03/30 18:00:38;;;;;;;;;;;;;;;9.40;43.26;100967.05;1821277;75;21750;-63
2021/03/30 18:03:06;;;;;;;64.27;35.98;;;;;;;9.32;43.32;100968.06;1810763;76;20563;-63
2021/03/30 18:05:34;;;;;;;62.10;33.25;;;;;;;9.28;43.26;100976.00;1816267;76;21728;-64
2021/03/30 18:08:04;;;;;;;55.33;29.98;;;;;;;9.23;43.53;100969.53;1823707;75;21594;-64
2021/03/30 18:10:34;;;;;;;48.55;25.57;;;;;;;9.17;43.66;100969.60;1760439;78;21543;-64
2021/03/30 18:13:04;;;;;;;54.35;25.05;;;;;;;9.13;43.84;100965.30;1819733;76;22023;-65
2021/03/30 18:15:34;;;;;;;40.92;23.07;;;;;;;9.10;43.80;100960.98;1822110;76;21725;-65
2021/03/30 18:18:03;;;;;;;44.05;24.45;;;;;;;9.10;44.04;100970.61;1810575;77;21650;-71
2021/03/30 18:20:32;;;;;;;42.60;25.27;;;;;;;9.03;44.21;100967.66;1782870;77;21150;-63
2021/03/30 18:23:00;;;;;;;52.75;27.17;;;;;;;8.96;44.38;100969.49;1810565;75;21622;-63
2021/03/30 18:25:28;;;;;;;41.68;23.55;;;;;;;8.81;44.86;100964.02;1824374;75;22023;-65
2021/03/30 18:27:56;;;;;;;33.10;19.95;;;;;;;8.64;45.22;100968.19;1770489;79;21619;-64
2021/03/30 18:30:25;;;;;;;33.98;19.30;;;;;;;8.51;45.23;100962.27;1768827;77;21646;-65
2021/03/30 18:32:53;;;;;;;32.85;18.35;;;;;;;8.45;45.43;100970.65;1764391;79;21636;-66
2021/03/30 18:35:21;;;;;;;31.07;18.05;;;;;;;8.37;45.46;100959.78;1754440;79;22362;-66
2021/03/30 18:37:48;;;;;;;33.60;17.35;;;;;;;8.28;45.64;100963.83;1722078;80;22024;-66
2021/03/30 18:40:16;;;;;;;29.60;17.37;;;;;;;8.26;45.63;100959.05;1755507;79;21654;-65
2021/03/30 18:42:44;;;;;;;25.20;15.85;;;;;;;8.23;45.57;100963.45;1747580;79;21698;-63
2021/03/30 18:45:14;;;;;;;26.42;16.32;;;;;;;8.19;45.57;100958.27;1745072;79;21663;-63
2021/03/30 18:47:43;;;;;;;26.68;16.95;;;;;;;8.13;45.67;100958.32;1737001;79;22161;-65
2021/03/30 18:50:14;;;;;;;28.50;16.85;;;;;;;8.07;45.68;100962.33;1781819;77;21946;-67
2021/03/30 18:52:43;;;;;;;33.05;17.32;;;;;;;8.03;45.70;100959.33;1818875;76;21675;-67
2021/03/30 18:55:16;;;;;;;28.40;17.15;;;;;;;7.96;46.22;100960.27;1819124;75;21737;-73
2021/03/30 18:57:47;;;;;;;29.87;17.05;;;;;;;7.89;46.22;100954.25;1811156;76;21650;-64
2021/03/30 19:02:42;;;;;;;29.95;17.65;;;;;;;7.82;46.40;100949.06;1809973;76;22131;-65
2021/03/30 19:05:11;;;;;;;31.70;19.70;;;;;;;7.72;46.37;100943.06;1787841;77;21559;-65
2021/03/30 19:07:39;;;;;;;32.38;20.43;;;;;;;7.74;46.42;100956.59;1744896;79;21711;-63
2021/03/30 19:10:09;;;;;;;30.05;18.37;;;;;;;7.71;46.24;100961.84;1813304;76;21959;-68
2021/03/30 19:12:37;;;;;;;24.75;16.80;;;;;;;7.69;46.20;100960.99;1806321;76;21643;-65
2021/03/30 19:15:06;;;;;;;21.50;14.85;;;;;;;7.66;46.14;100953.61;1805331;76;22450;-68
2021/03/30 19:17:34;;;;;;;25.10;14.60;;;;;;;7.62;46.12;100954.53;1821617;75;21760;-64
2021/03/30 19:20:03;;;;;;;26.10;14.45;;;;;;;7.57;45.67;100951.52;1803378;76;27388;-66
2021/03/30 19:22:30;;;;;;;26.75;14.35;;;;;;;7.57;45.73;100950.62;1823831;76;21685;-67
2021/03/30 19:24:58;;;;;;;23.40;14.28;;;;;;;7.54;45.56;100944.13;1823703;75;21630;-65
2021/03/30 19:27:29;;;;;;;24.77;14.35;;;;;;;7.49;45.46;100940.69;1803883;76;22060;-66
2021/03/30 19:29:55;;;;;;;24.10;15.28;;;;;;;7.45;45.47;100933.30;1816733;76;21178;-65
2021/03/30 19:32:26;;;;;;;21.57;13.90;;;;;;;7.44;45.48;100943.77;1806318;76;21202;-65
2021/03/30 19:37:37;;;;;;;28.05;13.68;;;;;;;7.46;45.46;100936.77;1860256;75;22859;-62
2021/03/30 19:40:07;;;;;;;21.75;13.83;;;;;;;7.40;45.47;100938.59;1837748;76;21606;-63
2021/03/30 19:42:35;;;;;;;23.83;13.60;;;;;;;7.42;45.35;100943.78;1774236;79;21986;-61
2021/03/30 19:45:05;;;;;;;23.55;13.30;;;;;;;7.36;45.19;100942.09;1787051;78;21542;-62
2021/03/30 19:47:33;;;;;;;26.05;14.00;;;;;;;7.30;44.92;100936.92;1766328;79;21670;-65
2021/03/30 19:50:02;;;;;;;21.02;13.60;;;;;;;7.27;45.01;100936.97;1792828;78;21615;-64
2021/03/30 19:52:31;;;;;;;18.90;12.98;;;;;;;7.26;44.96;100944.38;1769075;80;21568;-65
2021/03/30 19:54:59;;;;;;;24.23;13.30;;;;;;;7.25;44.50;100945.69;1766347;80;21637;-64
2021/03/30 19:57:27;;;;;;;;;;;;;;;7.23;44.78;100939.60;1776763;79;21689;-64
2021/03/30 19:59:56;;;;;;;24.80;12.28;;;;;;;7.18;44.65;100936.59;1788799;78;20243;-63
2021/03/30 20:02:24;;;;;;;22.48;12.63;;;;;;;7.10;44.89;100933.19;1791726;78;21567;-62
2021/03/30 20:04:52;;;;;;;;;;;;;;;7.06;44.85;100932.75;1772828;79;21579;-63
2021/03/30 20:07:21;;;;;;;21.17;11.20;;;;;;;7.03;44.72;100935.41;1764060;80;22473;-64
2021/03/30 20:09:50;;;;;;;21.05;12.28;;;;;;;6.99;44.60;100939.80;1797506;78;21737;-65
2021/03/30 20:12:17;;;;;;;;;;;;;;;6.98;44.56;100931.51;1808190;78;21571;-63
2021/03/30 20:14:47;;;;;;;20.10;11.15;;;;;;;6.97;44.48;100928.93;1783169;78;20483;-65
2021/03/30 20:17:15;;;;;;;23.38;11.73;;;;;;;6.93;44.43;100930.70;1766544;79;21658;-63
2021/03/30 20:19:43;;;;;;;18.67;11.15;;;;;;;6.92;44.36;100932.01;1771329;79;22061;-64
2021/03/30 20:22:10;;;;;;;;;;;;;;;6.92;44.34;100926.78;1763831;80;21166;-63
2021/03/30 20:24:39;;;;;;;23.42;11.03;;;;;;;6.93;43.69;100929.80;1773766;79;20506;-65
2021/03/30 20:27:08;;;;;;;24.55;10.55;;;;;;;6.93;43.97;100925.47;1771323;80;21560;-73
2021/03/30 20:29:36;;;;;;;20.17;10.80;;;;;;;6.92;43.91;100916.32;1756717;80;21494;-64
2021/03/30 20:32:05;;;;;;;20.35;10.48;;;;;;;6.91;43.55;100916.77;1765828;79;22052;-64
2021/03/30 20:34:33;;;;;;;19.52;10.48;;;;;;;6.91;43.50;100915.88;1766332;80;21555;-63
2021/03/30 20:37:02;;;;;;;22.98;10.43;;;;;;;6.90;43.55;100917.63;1785356;78;21634;-65
2021/03/30 20:39:30;;;;;;;19.67;9.35;;;;;;;6.91;43.28;100920.69;1758203;80;21635;-65
2021/03/30 20:41:58;;;;;;;18.67;9.58;;;;;;;6.86;42.92;100915.06;1780847;78;21540;-65
2021/03/30 20:44:26;;;;;;;14.80;8.40;;;;;;;6.83;42.79;100912.02;1774536;78;21913;-65
2021/03/30 20:46:54;;;;;;;16.90;9.90;;;;;;;6.84;42.99;100908.53;1792761;78;21604;-65
2021/03/30 20:49:22;;;;;;;;;;;;;;;6.79;42.91;100903.77;1777289;79;21697;-67
2021/03/30 20:51:49;;;;;;;;;;;;;;;6.75;42.68;100902.06;1798967;78;20538;-64
2021/03/30 20:54:17;;;;;;;17.77;8.80;;;;;;;6.67;42.73;100903.84;1800046;78;20210;-65
2021/03/30 20:56:45;;;;;;;14.43;9.45;;;;;;;6.57;42.73;100901.73;1799209;78;22097;-68
2021/03/30 20:59:13;;;;;;;21.12;8.65;;;;;;;6.56;42.98;100896.95;1779684;78;21586;-67
2021/03/30 21:01:41;;;;;;;18.50;9.73;;;;;;;6.54;42.86;100895.23;1775100;79;28824;-66
2021/03/30 21:04:09;;;;;;;18.50;8.63;;;;;;;6.56;42.84;100894.34;1798714;78;21583;-67
2021/03/30 21:06:37;;;;;;;14.20;8.85;;;;;;;6.56;42.88;100896.09;1780255;79;21471;-63
2021/03/30 21:09:06;;;;;;;19.17;8.68;;;;;;;6.56;42.73;100892.17;1801793;78;22107;-64